sensor_id;sensor_type;location;lat;lon;timestamp;temperature;humidity
36416;DHT22;22447;44.530;18.620;2023-05-07T00:00:29;11.00;99.90
36416;DHT22;22447;44.530;18.620;2023-05-07T00:02:55;11.10;99.90
36416;DHT22;22447;44.530;18.620;2023-05-07T00:05:21;11.10;99.90
36416;DHT22;22447;44.530;18.620;2023-05-07T00:07:46;11.10;99.90
36416;DHT22;22447;44.530;18.620;2023-05-07T00:10:12;11.10;99.90
36416;DHT22;22447;44.530;18.620;2023-05-07T00:12:38;11.00;99.90
36416;DHT22;22447;44.530;18.620;2023-05-07T00:15:04;11.00;99.90
36416;DHT22;22447;44.530;18.620;2023-05-07T00:17:31;11.00;99.90
36416;DHT22;22447;44.530;18.620;2023-05-07T00:19:56;10.90;99.90
36416;DHT22;22447;44.530;18.620;2023-05-07T00:22:22;10.90;99.90
36416;DHT22;22447;44.530;18.620;2023-05-07T00:24:48;10.90;99.90
36416;DHT22;22447;44.530;18.620;2023-05-07T00:27:14;10.90;99.90
36416;DHT22;22447;44.530;18.620;2023-05-07T00:29:39;10.90;99.90
36416;DHT22;22447;44.530;18.620;2023-05-07T00:32:05;10.90;99.90
36416;DHT22;22447;44.530;18.620;2023-05-07T00:34:31;10.80;99.90
36416;DHT22;22447;44.530;18.620;2023-05-07T00:36:57;10.80;99.90
36416;DHT22;22447;44.530;18.620;2023-05-07T00:39:23;10.80;99.90
36416;DHT22;22447;44.530;18.620;2023-05-07T00:41:48;10.60;99.90
36416;DHT22;22447;44.530;18.620;2023-05-07T00:44:14;10.60;99.90
36416;DHT22;22447;44.530;18.620;2023-05-07T00:46:40;10.70;99.90
36416;DHT22;22447;44.530;18.620;2023-05-07T00:49:06;10.80;99.90
36416;DHT22;22447;44.530;18.620;2023-05-07T00:51:32;10.80;99.90
36416;DHT22;22447;44.530;18.620;2023-05-07T00:53:59;10.60;99.90
36416;DHT22;22447;44.530;18.620;2023-05-07T00:56:25;10.60;99.90
36416;DHT22;22447;44.530;18.620;2023-05-07T00:58:52;10.50;99.90
36416;DHT22;22447;44.530;18.620;2023-05-07T01:01:18;10.50;99.90
36416;DHT22;22447;44.530;18.620;2023-05-07T01:03:43;10.40;99.90
36416;DHT22;22447;44.530;18.620;2023-05-07T01:06:09;10.40;99.90
36416;DHT22;22447;44.530;18.620;2023-05-07T01:08:38;10.50;99.90
36416;DHT22;22447;44.530;18.620;2023-05-07T01:11:06;10.50;99.90
36416;DHT22;22447;44.530;18.620;2023-05-07T01:13:32;10.50;99.90
36416;DHT22;22447;44.530;18.620;2023-05-07T01:15:58;10.50;99.90
36416;DHT22;22447;44.530;18.620;2023-05-07T01:18:24;10.40;99.90
36416;DHT22;22447;44.530;18.620;2023-05-07T01:20:51;10.50;99.90
36416;DHT22;22447;44.530;18.620;2023-05-07T01:23:17;10.50;99.90
36416;DHT22;22447;44.530;18.620;2023-05-07T01:25:50;10.50;99.90
36416;DHT22;22447;44.530;18.620;2023-05-07T01:28:16;10.50;99.90
36416;DHT22;22447;44.530;18.620;2023-05-07T01:30:44;10.50;99.90
36416;DHT22;22447;44.530;18.620;2023-05-07T01:33:14;10.50;99.90
36416;DHT22;22447;44.530;18.620;2023-05-07T01:35:41;10.50;99.90
36416;DHT22;22447;44.530;18.620;2023-05-07T01:38:09;10.50;99.90
36416;DHT22;22447;44.530;18.620;2023-05-07T01:40:35;10.40;99.90
36416;DHT22;22447;44.530;18.620;2023-05-07T01:43:04;10.40;99.90
36416;DHT22;22447;44.530;18.620;2023-05-07T01:45:32;10.40;99.90
36416;DHT22;22447;44.530;18.620;2023-05-07T01:47:59;10.40;99.90
36416;DHT22;22447;44.530;18.620;2023-05-07T01:50:25;10.40;99.90
36416;DHT22;22447;44.530;18.620;2023-05-07T01:52:51;10.40;99.90
36416;DHT22;22447;44.530;18.620;2023-05-07T01:55:17;10.30;99.90
36416;DHT22;22447;44.530;18.620;2023-05-07T01:57:43;10.20;99.90
36416;DHT22;22447;44.530;18.620;2023-05-07T02:00:09;10.20;99.90
36416;DHT22;22447;44.530;18.620;2023-05-07T02:02:41;10.10;99.90
36416;DHT22;22447;44.530;18.620;2023-05-07T02:05:14;10.10;99.90
36416;DHT22;22447;44.530;18.620;2023-05-07T02:07:41;10.10;99.90
36416;DHT22;22447;44.530;18.620;2023-05-07T02:10:07;10.10;99.90
36416;DHT22;22447;44.530;18.620;2023-05-07T02:12:33;10.10;99.90
36416;DHT22;22447;44.530;18.620;2023-05-07T02:14:58;10.00;99.90
36416;DHT22;22447;44.530;18.620;2023-05-07T02:17:24;10.10;99.90
36416;DHT22;22447;44.530;18.620;2023-05-07T02:19:51;10.00;99.90
36416;DHT22;22447;44.530;18.620;2023-05-07T02:22:17;10.00;99.90
36416;DHT22;22447;44.530;18.620;2023-05-07T02:24:43;10.20;99.90
36416;DHT22;22447;44.530;18.620;2023-05-07T02:27:08;10.10;99.90
36416;DHT22;22447;44.530;18.620;2023-05-07T02:29:35;10.00;99.90
36416;DHT22;22447;44.530;18.620;2023-05-07T02:32:00;10.00;99.90
36416;DHT22;22447;44.530;18.620;2023-05-07T02:34:27;9.90;99.90
36416;DHT22;22447;44.530;18.620;2023-05-07T02:36:52;9.80;99.90
36416;DHT22;22447;44.530;18.620;2023-05-07T02:39:22;9.80;99.90
36416;DHT22;22447;44.530;18.620;2023-05-07T02:41:47;9.80;99.90
36416;DHT22;22447;44.530;18.620;2023-05-07T02:44:13;9.70;99.90
36416;DHT22;22447;44.530;18.620;2023-05-07T02:46:39;9.70;99.90
36416;DHT22;22447;44.530;18.620;2023-05-07T02:49:09;9.60;99.90
36416;DHT22;22447;44.530;18.620;2023-05-07T02:51:35;9.60;99.90
36416;DHT22;22447;44.530;18.620;2023-05-07T02:54:03;9.50;99.90
36416;DHT22;22447;44.530;18.620;2023-05-07T02:56:31;9.50;99.90
36416;DHT22;22447;44.530;18.620;2023-05-07T02:58:56;9.40;99.90
36416;DHT22;22447;44.530;18.620;2023-05-07T03:01:25;9.40;99.90
36416;DHT22;22447;44.530;18.620;2023-05-07T03:04:02;9.50;99.90
36416;DHT22;22447;44.530;18.620;2023-05-07T03:06:28;9.50;99.90
36416;DHT22;22447;44.530;18.620;2023-05-07T03:08:53;9.50;99.90
36416;DHT22;22447;44.530;18.620;2023-05-07T03:11:19;9.40;99.90
36416;DHT22;22447;44.530;18.620;2023-05-07T03:13:45;9.40;99.90
36416;DHT22;22447;44.530;18.620;2023-05-07T03:16:11;9.40;99.90
36416;DHT22;22447;44.530;18.620;2023-05-07T03:18:37;9.30;99.90
36416;DHT22;22447;44.530;18.620;2023-05-07T03:21:03;9.30;99.90
36416;DHT22;22447;44.530;18.620;2023-05-07T03:23:29;9.30;99.90
36416;DHT22;22447;44.530;18.620;2023-05-07T03:25:55;9.30;99.90
36416;DHT22;22447;44.530;18.620;2023-05-07T03:28:20;9.20;99.90
36416;DHT22;22447;44.530;18.620;2023-05-07T03:30:52;9.20;99.90
36416;DHT22;22447;44.530;18.620;2023-05-07T03:33:17;9.30;99.90
36416;DHT22;22447;44.530;18.620;2023-05-07T03:35:44;9.30;99.90
36416;DHT22;22447;44.530;18.620;2023-05-07T03:38:10;9.30;99.90
36416;DHT22;22447;44.530;18.620;2023-05-07T03:40:37;9.30;99.90
36416;DHT22;22447;44.530;18.620;2023-05-07T03:43:04;9.30;99.90
36416;DHT22;22447;44.530;18.620;2023-05-07T03:45:31;9.40;99.90
36416;DHT22;22447;44.530;18.620;2023-05-07T03:48:06;9.40;99.90
36416;DHT22;22447;44.530;18.620;2023-05-07T03:50:32;9.40;99.90
36416;DHT22;22447;44.530;18.620;2023-05-07T03:52:58;9.40;99.90
36416;DHT22;22447;44.530;18.620;2023-05-07T03:55:24;9.50;99.90
36416;DHT22;22447;44.530;18.620;2023-05-07T03:57:56;9.40;99.90
36416;DHT22;22447;44.530;18.620;2023-05-07T04:00:23;9.50;99.90
36416;DHT22;22447;44.530;18.620;2023-05-07T04:02:49;9.50;99.90
36416;DHT22;22447;44.530;18.620;2023-05-07T04:05:21;9.40;99.90
36416;DHT22;22447;44.530;18.620;2023-05-07T04:07:50;9.50;99.90
36416;DHT22;22447;44.530;18.620;2023-05-07T04:10:20;9.70;99.90
36416;DHT22;22447;44.530;18.620;2023-05-07T04:12:48;9.80;99.90
36416;DHT22;22447;44.530;18.620;2023-05-07T04:15:19;9.90;99.90
36416;DHT22;22447;44.530;18.620;2023-05-07T04:17:45;9.90;99.90
36416;DHT22;22447;44.530;18.620;2023-05-07T04:20:15;9.90;99.90
36416;DHT22;22447;44.530;18.620;2023-05-07T04:22:43;9.90;99.90
36416;DHT22;22447;44.530;18.620;2023-05-07T04:25:09;10.00;99.90
36416;DHT22;22447;44.530;18.620;2023-05-07T04:27:36;10.10;99.90
36416;DHT22;22447;44.530;18.620;2023-05-07T04:30:03;10.20;99.90
36416;DHT22;22447;44.530;18.620;2023-05-07T04:32:34;10.40;99.90
36416;DHT22;22447;44.530;18.620;2023-05-07T04:35:00;10.50;99.90
36416;DHT22;22447;44.530;18.620;2023-05-07T04:37:25;10.60;99.90
36416;DHT22;22447;44.530;18.620;2023-05-07T04:39:52;10.70;99.90
36416;DHT22;22447;44.530;18.620;2023-05-07T04:42:19;10.80;99.90
36416;DHT22;22447;44.530;18.620;2023-05-07T04:44:45;10.90;99.90
36416;DHT22;22447;44.530;18.620;2023-05-07T04:47:11;11.00;99.90
36416;DHT22;22447;44.530;18.620;2023-05-07T04:49:38;11.00;99.90
36416;DHT22;22447;44.530;18.620;2023-05-07T04:52:05;11.10;99.90
36416;DHT22;22447;44.530;18.620;2023-05-07T04:54:31;11.30;99.90
36416;DHT22;22447;44.530;18.620;2023-05-07T04:56:57;11.50;99.90
36416;DHT22;22447;44.530;18.620;2023-05-07T04:59:23;11.40;99.90
36416;DHT22;22447;44.530;18.620;2023-05-07T05:01:50;11.50;99.90
36416;DHT22;22447;44.530;18.620;2023-05-07T05:04:15;11.60;99.90
36416;DHT22;22447;44.530;18.620;2023-05-07T05:06:41;11.70;99.90
36416;DHT22;22447;44.530;18.620;2023-05-07T05:09:09;11.80;99.90
36416;DHT22;22447;44.530;18.620;2023-05-07T05:11:37;11.90;99.90
36416;DHT22;22447;44.530;18.620;2023-05-07T05:14:03;12.10;99.90
36416;DHT22;22447;44.530;18.620;2023-05-07T05:16:29;12.20;99.90
36416;DHT22;22447;44.530;18.620;2023-05-07T05:18:55;12.20;99.90
36416;DHT22;22447;44.530;18.620;2023-05-07T05:21:21;12.30;99.90
36416;DHT22;22447;44.530;18.620;2023-05-07T05:23:50;12.60;99.90
36416;DHT22;22447;44.530;18.620;2023-05-07T05:26:19;12.60;99.90
36416;DHT22;22447;44.530;18.620;2023-05-07T05:28:47;12.60;99.90
36416;DHT22;22447;44.530;18.620;2023-05-07T05:31:15;12.70;99.90
36416;DHT22;22447;44.530;18.620;2023-05-07T05:33:41;12.70;99.90
36416;DHT22;22447;44.530;18.620;2023-05-07T05:36:10;12.90;99.90
36416;DHT22;22447;44.530;18.620;2023-05-07T05:38:37;13.00;99.90
36416;DHT22;22447;44.530;18.620;2023-05-07T05:41:03;13.10;99.90
36416;DHT22;22447;44.530;18.620;2023-05-07T05:43:29;13.40;99.90
36416;DHT22;22447;44.530;18.620;2023-05-07T05:45:56;13.50;99.90
36416;DHT22;22447;44.530;18.620;2023-05-07T05:48:22;13.80;99.90
36416;DHT22;22447;44.530;18.620;2023-05-07T05:50:48;13.90;99.90
36416;DHT22;22447;44.530;18.620;2023-05-07T05:53:16;14.20;99.90
36416;DHT22;22447;44.530;18.620;2023-05-07T05:55:43;14.30;99.90
36416;DHT22;22447;44.530;18.620;2023-05-07T05:58:10;14.40;99.90
36416;DHT22;22447;44.530;18.620;2023-05-07T06:00:39;14.60;99.90
36416;DHT22;22447;44.530;18.620;2023-05-07T06:03:06;14.70;99.90
36416;DHT22;22447;44.530;18.620;2023-05-07T06:05:33;14.90;99.90
36416;DHT22;22447;44.530;18.620;2023-05-07T06:07:59;15.00;99.90
36416;DHT22;22447;44.530;18.620;2023-05-07T06:10:29;15.20;99.90
36416;DHT22;22447;44.530;18.620;2023-05-07T06:12:55;15.30;99.90
36416;DHT22;22447;44.530;18.620;2023-05-07T06:15:21;15.50;99.90
36416;DHT22;22447;44.530;18.620;2023-05-07T06:17:47;15.70;99.90
36416;DHT22;22447;44.530;18.620;2023-05-07T06:20:14;15.80;99.90
36416;DHT22;22447;44.530;18.620;2023-05-07T06:22:40;16.10;99.90
36416;DHT22;22447;44.530;18.620;2023-05-07T06:25:08;16.30;99.90
36416;DHT22;22447;44.530;18.620;2023-05-07T06:27:34;16.50;99.90
36416;DHT22;22447;44.530;18.620;2023-05-07T06:30:00;16.70;99.90
36416;DHT22;22447;44.530;18.620;2023-05-07T06:32:26;16.80;99.90
36416;DHT22;22447;44.530;18.620;2023-05-07T06:34:52;17.10;99.90
36416;DHT22;22447;44.530;18.620;2023-05-07T06:37:18;17.40;99.60
36416;DHT22;22447;44.530;18.620;2023-05-07T06:40:05;17.60;98.30
36416;DHT22;22447;44.530;18.620;2023-05-07T06:42:33;17.90;98.00
36416;DHT22;22447;44.530;18.620;2023-05-07T06:45:16;18.00;95.50
36416;DHT22;22447;44.530;18.620;2023-05-07T06:47:42;18.30;95.20
36416;DHT22;22447;44.530;18.620;2023-05-07T06:50:08;18.50;94.30
36416;DHT22;22447;44.530;18.620;2023-05-07T06:52:35;18.60;92.60
36416;DHT22;22447;44.530;18.620;2023-05-07T06:55:01;18.80;91.90
36416;DHT22;22447;44.530;18.620;2023-05-07T06:57:27;19.20;92.40
36416;DHT22;22447;44.530;18.620;2023-05-07T06:59:53;19.30;90.90
36416;DHT22;22447;44.530;18.620;2023-05-07T07:02:20;19.50;90.40
36416;DHT22;22447;44.530;18.620;2023-05-07T07:04:48;19.80;86.20
36416;DHT22;22447;44.530;18.620;2023-05-07T07:07:14;20.10;83.50
36416;DHT22;22447;44.530;18.620;2023-05-07T07:09:42;20.50;84.70
36416;DHT22;22447;44.530;18.620;2023-05-07T07:12:09;20.50;80.50
36416;DHT22;22447;44.530;18.620;2023-05-07T07:14:37;21.10;82.70
36416;DHT22;22447;44.530;18.620;2023-05-07T07:17:03;21.40;79.40
36416;DHT22;22447;44.530;18.620;2023-05-07T07:19:31;21.70;77.50
36416;DHT22;22447;44.530;18.620;2023-05-07T07:21:57;22.00;72.80
36416;DHT22;22447;44.530;18.620;2023-05-07T07:24:23;22.30;72.00
36416;DHT22;22447;44.530;18.620;2023-05-07T07:26:53;22.50;72.10
36416;DHT22;22447;44.530;18.620;2023-05-07T07:29:21;22.70;69.10
36416;DHT22;22447;44.530;18.620;2023-05-07T07:31:48;22.80;68.10
36416;DHT22;22447;44.530;18.620;2023-05-07T07:34:15;23.00;66.50
36416;DHT22;22447;44.530;18.620;2023-05-07T07:36:41;23.20;65.50
36416;DHT22;22447;44.530;18.620;2023-05-07T07:39:08;23.00;63.90
36416;DHT22;22447;44.530;18.620;2023-05-07T07:41:35;23.40;61.80
36416;DHT22;22447;44.530;18.620;2023-05-07T07:44:02;23.50;63.60
36416;DHT22;22447;44.530;18.620;2023-05-07T07:46:29;23.80;61.50
36416;DHT22;22447;44.530;18.620;2023-05-07T07:48:55;24.20;59.70
36416;DHT22;22447;44.530;18.620;2023-05-07T07:51:23;24.40;61.20
36416;DHT22;22447;44.530;18.620;2023-05-07T07:53:50;24.30;60.00
36416;DHT22;22447;44.530;18.620;2023-05-07T07:56:17;24.90;59.60
36416;DHT22;22447;44.530;18.620;2023-05-07T07:58:42;24.90;57.00
36416;DHT22;22447;44.530;18.620;2023-05-07T08:01:09;25.20;56.00
36416;DHT22;22447;44.530;18.620;2023-05-07T08:03:34;24.70;58.20
36416;DHT22;22447;44.530;18.620;2023-05-07T08:06:01;24.80;57.80
36416;DHT22;22447;44.530;18.620;2023-05-07T08:08:28;25.00;56.20
36416;DHT22;22447;44.530;18.620;2023-05-07T08:10:54;25.80;57.00
36416;DHT22;22447;44.530;18.620;2023-05-07T08:13:28;25.30;54.40
36416;DHT22;22447;44.530;18.620;2023-05-07T08:15:54;25.80;53.90
36416;DHT22;22447;44.530;18.620;2023-05-07T08:18:21;26.00;54.50
36416;DHT22;22447;44.530;18.620;2023-05-07T08:20:49;26.40;54.60
36416;DHT22;22447;44.530;18.620;2023-05-07T08:23:19;26.70;53.30
36416;DHT22;22447;44.530;18.620;2023-05-07T08:25:45;26.50;50.60
36416;DHT22;22447;44.530;18.620;2023-05-07T08:28:12;26.30;51.50
36416;DHT22;22447;44.530;18.620;2023-05-07T08:30:39;26.50;51.40
36416;DHT22;22447;44.530;18.620;2023-05-07T08:33:05;26.90;50.20
36416;DHT22;22447;44.530;18.620;2023-05-07T08:35:31;26.80;49.60
36416;DHT22;22447;44.530;18.620;2023-05-07T08:37:57;26.60;51.10
36416;DHT22;22447;44.530;18.620;2023-05-07T08:40:24;27.00;48.80
36416;DHT22;22447;44.530;18.620;2023-05-07T08:42:51;27.00;48.90
36416;DHT22;22447;44.530;18.620;2023-05-07T08:45:17;27.70;49.70
36416;DHT22;22447;44.530;18.620;2023-05-07T08:47:44;27.90;46.80
36416;DHT22;22447;44.530;18.620;2023-05-07T08:50:13;27.80;46.40
36416;DHT22;22447;44.530;18.620;2023-05-07T08:52:39;27.80;45.40
36416;DHT22;22447;44.530;18.620;2023-05-07T08:55:06;28.10;44.30
36416;DHT22;22447;44.530;18.620;2023-05-07T08:57:32;28.40;42.00
36416;DHT22;22447;44.530;18.620;2023-05-07T08:59:58;28.30;45.50
36416;DHT22;22447;44.530;18.620;2023-05-07T09:02:24;29.00;43.90
36416;DHT22;22447;44.530;18.620;2023-05-07T09:04:50;29.30;43.30
36416;DHT22;22447;44.530;18.620;2023-05-07T09:07:16;29.50;42.80
36416;DHT22;22447;44.530;18.620;2023-05-07T09:09:43;29.50;40.90
36416;DHT22;22447;44.530;18.620;2023-05-07T09:12:10;29.30;43.10
36416;DHT22;22447;44.530;18.620;2023-05-07T09:14:36;29.90;39.00
36416;DHT22;22447;44.530;18.620;2023-05-07T09:17:03;30.20;35.80
36416;DHT22;22447;44.530;18.620;2023-05-07T09:19:29;29.90;34.30
36416;DHT22;22447;44.530;18.620;2023-05-07T09:22:01;29.50;35.40
36416;DHT22;22447;44.530;18.620;2023-05-07T09:24:33;29.90;35.80
36416;DHT22;22447;44.530;18.620;2023-05-07T09:27:07;29.90;35.40
36416;DHT22;22447;44.530;18.620;2023-05-07T09:29:34;30.30;36.20
36416;DHT22;22447;44.530;18.620;2023-05-07T09:32:05;30.30;32.90
36416;DHT22;22447;44.530;18.620;2023-05-07T09:34:31;30.50;33.80
36416;DHT22;22447;44.530;18.620;2023-05-07T09:37:01;30.60;35.20
36416;DHT22;22447;44.530;18.620;2023-05-07T09:39:45;30.70;33.80
36416;DHT22;22447;44.530;18.620;2023-05-07T09:42:13;31.00;31.70
36416;DHT22;22447;44.530;18.620;2023-05-07T09:44:45;31.20;32.70
36416;DHT22;22447;44.530;18.620;2023-05-07T09:47:18;31.20;31.30
36416;DHT22;22447;44.530;18.620;2023-05-07T09:49:46;31.40;29.10
36416;DHT22;22447;44.530;18.620;2023-05-07T09:52:14;31.50;29.50
36416;DHT22;22447;44.530;18.620;2023-05-07T09:54:45;31.40;28.80
36416;DHT22;22447;44.530;18.620;2023-05-07T09:57:15;31.50;30.60
36416;DHT22;22447;44.530;18.620;2023-05-07T09:59:43;30.70;27.70
36416;DHT22;22447;44.530;18.620;2023-05-07T10:02:14;29.50;30.00
36416;DHT22;22447;44.530;18.620;2023-05-07T10:04:46;30.50;30.30
36416;DHT22;22447;44.530;18.620;2023-05-07T10:07:13;30.50;30.10
36416;DHT22;22447;44.530;18.620;2023-05-07T10:09:39;30.50;30.50
36416;DHT22;22447;44.530;18.620;2023-05-07T10:12:13;31.20;29.70
36416;DHT22;22447;44.530;18.620;2023-05-07T10:14:39;30.20;28.90
36416;DHT22;22447;44.530;18.620;2023-05-07T10:17:05;29.00;29.80
36416;DHT22;22447;44.530;18.620;2023-05-07T10:19:31;29.40;31.20
36416;DHT22;22447;44.530;18.620;2023-05-07T10:22:03;30.60;31.20
36416;DHT22;22447;44.530;18.620;2023-05-07T10:24:32;31.20;31.00
36416;DHT22;22447;44.530;18.620;2023-05-07T10:27:01;31.60;31.40
36416;DHT22;22447;44.530;18.620;2023-05-07T10:34:34;31.70;28.80
36416;DHT22;22447;44.530;18.620;2023-05-07T10:37:01;29.90;27.90
36416;DHT22;22447;44.530;18.620;2023-05-07T10:39:28;29.40;29.40
36416;DHT22;22447;44.530;18.620;2023-05-07T10:41:55;30.50;29.70
36416;DHT22;22447;44.530;18.620;2023-05-07T10:44:28;31.20;29.80
36416;DHT22;22447;44.530;18.620;2023-05-07T10:47:08;32.00;29.00
36416;DHT22;22447;44.530;18.620;2023-05-07T10:52:37;32.60;30.40
36416;DHT22;22447;44.530;18.620;2023-05-07T10:58:26;31.10;29.70
36416;DHT22;22447;44.530;18.620;2023-05-07T11:00:57;31.40;29.90
36416;DHT22;22447;44.530;18.620;2023-05-07T11:03:27;31.20;30.70
36416;DHT22;22447;44.530;18.620;2023-05-07T11:06:16;32.00;29.60
36416;DHT22;22447;44.530;18.620;2023-05-07T11:08:56;32.20;30.30
36416;DHT22;22447;44.530;18.620;2023-05-07T11:11:49;32.90;29.80
36416;DHT22;22447;44.530;18.620;2023-05-07T11:14:44;32.90;27.20
36416;DHT22;22447;44.530;18.620;2023-05-07T11:17:21;32.50;28.10
36416;DHT22;22447;44.530;18.620;2023-05-07T11:20:01;32.30;26.10
36416;DHT22;22447;44.530;18.620;2023-05-07T11:22:50;32.90;27.20
36416;DHT22;22447;44.530;18.620;2023-05-07T11:25:22;32.80;27.20
36416;DHT22;22447;44.530;18.620;2023-05-07T11:28:17;32.60;30.00
36416;DHT22;22447;44.530;18.620;2023-05-07T11:30:50;33.00;29.30
36416;DHT22;22447;44.530;18.620;2023-05-07T11:33:18;32.90;29.30
36416;DHT22;22447;44.530;18.620;2023-05-07T11:35:46;32.80;28.50
36416;DHT22;22447;44.530;18.620;2023-05-07T11:38:14;32.90;28.70
36416;DHT22;22447;44.530;18.620;2023-05-07T11:40:57;33.20;30.60
36416;DHT22;22447;44.530;18.620;2023-05-07T11:43:24;32.40;27.70
36416;DHT22;22447;44.530;18.620;2023-05-07T11:45:50;32.40;27.60
36416;DHT22;22447;44.530;18.620;2023-05-07T11:48:16;32.50;27.80
36416;DHT22;22447;44.530;18.620;2023-05-07T11:51:00;32.80;28.40
36416;DHT22;22447;44.530;18.620;2023-05-07T11:53:26;32.60;29.00
36416;DHT22;22447;44.530;18.620;2023-05-07T11:55:53;32.30;29.30
36416;DHT22;22447;44.530;18.620;2023-05-07T11:58:22;32.80;29.60
36416;DHT22;22447;44.530;18.620;2023-05-07T12:00:54;33.00;30.00
36416;DHT22;22447;44.530;18.620;2023-05-07T12:03:20;33.20;30.40
36416;DHT22;22447;44.530;18.620;2023-05-07T12:05:46;32.30;32.90
36416;DHT22;22447;44.530;18.620;2023-05-07T12:08:15;32.50;31.30
36416;DHT22;22447;44.530;18.620;2023-05-07T12:10:42;32.10;31.50
36416;DHT22;22447;44.530;18.620;2023-05-07T12:13:23;31.50;32.40
36416;DHT22;22447;44.530;18.620;2023-05-07T12:15:50;32.00;35.10
36416;DHT22;22447;44.530;18.620;2023-05-07T12:18:16;32.80;34.60
36416;DHT22;22447;44.530;18.620;2023-05-07T12:20:42;32.60;32.10
36416;DHT22;22447;44.530;18.620;2023-05-07T12:23:08;32.70;30.40
36416;DHT22;22447;44.530;18.620;2023-05-07T12:25:34;31.70;29.90
36416;DHT22;22447;44.530;18.620;2023-05-07T12:28:01;31.60;31.60
36416;DHT22;22447;44.530;18.620;2023-05-07T12:30:27;31.80;33.00
36416;DHT22;22447;44.530;18.620;2023-05-07T12:32:53;31.00;32.60
36416;DHT22;22447;44.530;18.620;2023-05-07T12:35:26;30.90;31.80
36416;DHT22;22447;44.530;18.620;2023-05-07T12:37:58;30.60;33.40
36416;DHT22;22447;44.530;18.620;2023-05-07T12:40:38;30.40;37.10
36416;DHT22;22447;44.530;18.620;2023-05-07T12:43:04;30.70;38.00
36416;DHT22;22447;44.530;18.620;2023-05-07T12:45:30;30.70;35.30
36416;DHT22;22447;44.530;18.620;2023-05-07T12:47:55;30.80;36.90
36416;DHT22;22447;44.530;18.620;2023-05-07T12:50:22;31.30;34.60
36416;DHT22;22447;44.530;18.620;2023-05-07T12:52:48;31.60;34.50
36416;DHT22;22447;44.530;18.620;2023-05-07T12:55:14;31.70;32.30
36416;DHT22;22447;44.530;18.620;2023-05-07T12:57:41;31.90;34.00
36416;DHT22;22447;44.530;18.620;2023-05-07T13:00:07;31.80;33.00
36416;DHT22;22447;44.530;18.620;2023-05-07T13:02:34;31.30;32.80
36416;DHT22;22447;44.530;18.620;2023-05-07T13:05:02;31.60;32.20
36416;DHT22;22447;44.530;18.620;2023-05-07T13:07:28;31.70;34.00
36416;DHT22;22447;44.530;18.620;2023-05-07T13:09:54;31.60;31.50
36416;DHT22;22447;44.530;18.620;2023-05-07T13:12:20;31.40;29.40
36416;DHT22;22447;44.530;18.620;2023-05-07T13:14:46;30.40;32.40
36416;DHT22;22447;44.530;18.620;2023-05-07T13:17:11;31.10;33.00
36416;DHT22;22447;44.530;18.620;2023-05-07T13:19:37;31.40;34.20
36416;DHT22;22447;44.530;18.620;2023-05-07T13:22:03;31.50;30.00
36416;DHT22;22447;44.530;18.620;2023-05-07T13:24:29;29.70;30.50
36416;DHT22;22447;44.530;18.620;2023-05-07T13:26:55;29.00;32.20
36416;DHT22;22447;44.530;18.620;2023-05-07T13:29:20;29.70;32.90
36416;DHT22;22447;44.530;18.620;2023-05-07T13:31:54;30.00;33.50
36416;DHT22;22447;44.530;18.620;2023-05-07T13:34:20;30.20;34.00
36416;DHT22;22447;44.530;18.620;2023-05-07T13:36:45;30.40;34.10
36416;DHT22;22447;44.530;18.620;2023-05-07T13:39:11;30.70;32.60
36416;DHT22;22447;44.530;18.620;2023-05-07T13:41:37;30.80;32.80
36416;DHT22;22447;44.530;18.620;2023-05-07T13:44:03;31.00;32.60
36416;DHT22;22447;44.530;18.620;2023-05-07T13:46:29;31.10;35.50
36416;DHT22;22447;44.530;18.620;2023-05-07T13:48:55;31.00;34.50
36416;DHT22;22447;44.530;18.620;2023-05-07T13:51:21;30.60;33.40
36416;DHT22;22447;44.530;18.620;2023-05-07T13:53:47;30.20;34.20
36416;DHT22;22447;44.530;18.620;2023-05-07T13:56:13;30.30;34.00
36416;DHT22;22447;44.530;18.620;2023-05-07T13:58:40;30.40;35.30
36416;DHT22;22447;44.530;18.620;2023-05-07T14:01:06;30.60;34.40
36416;DHT22;22447;44.530;18.620;2023-05-07T14:03:31;30.30;34.40
36416;DHT22;22447;44.530;18.620;2023-05-07T14:05:59;30.50;34.70
36416;DHT22;22447;44.530;18.620;2023-05-07T14:08:27;30.30;33.30
36416;DHT22;22447;44.530;18.620;2023-05-07T14:10:53;29.80;32.40
36416;DHT22;22447;44.530;18.620;2023-05-07T14:13:18;30.00;34.80
36416;DHT22;22447;44.530;18.620;2023-05-07T14:15:45;29.60;32.60
36416;DHT22;22447;44.530;18.620;2023-05-07T14:18:12;29.50;34.20
36416;DHT22;22447;44.530;18.620;2023-05-07T14:20:38;29.20;34.00
36416;DHT22;22447;44.530;18.620;2023-05-07T14:23:04;29.10;35.50
36416;DHT22;22447;44.530;18.620;2023-05-07T14:25:30;28.50;32.30
36416;DHT22;22447;44.530;18.620;2023-05-07T14:27:55;28.70;35.00
36416;DHT22;22447;44.530;18.620;2023-05-07T14:30:21;28.50;33.80
36416;DHT22;22447;44.530;18.620;2023-05-07T14:32:49;28.70;37.30
36416;DHT22;22447;44.530;18.620;2023-05-07T14:35:15;28.80;37.40
36416;DHT22;22447;44.530;18.620;2023-05-07T14:37:41;28.70;34.60
36416;DHT22;22447;44.530;18.620;2023-05-07T14:40:07;28.40;33.30
36416;DHT22;22447;44.530;18.620;2023-05-07T14:42:33;28.60;35.50
36416;DHT22;22447;44.530;18.620;2023-05-07T14:44:59;28.40;34.20
36416;DHT22;22447;44.530;18.620;2023-05-07T14:47:25;28.10;34.30
36416;DHT22;22447;44.530;18.620;2023-05-07T14:49:51;28.10;35.20
36416;DHT22;22447;44.530;18.620;2023-05-07T14:52:16;28.20;38.20
36416;DHT22;22447;44.530;18.620;2023-05-07T14:54:42;28.00;37.30
36416;DHT22;22447;44.530;18.620;2023-05-07T14:57:08;28.00;37.80
36416;DHT22;22447;44.530;18.620;2023-05-07T14:59:35;28.00;42.70
36416;DHT22;22447;44.530;18.620;2023-05-07T15:02:01;27.90;38.90
36416;DHT22;22447;44.530;18.620;2023-05-07T15:04:27;27.70;42.50
36416;DHT22;22447;44.530;18.620;2023-05-07T15:06:52;27.70;41.90
36416;DHT22;22447;44.530;18.620;2023-05-07T15:09:21;27.50;41.60
36416;DHT22;22447;44.530;18.620;2023-05-07T15:11:47;27.40;41.40
36416;DHT22;22447;44.530;18.620;2023-05-07T15:14:13;27.40;40.40
36416;DHT22;22447;44.530;18.620;2023-05-07T15:16:39;27.30;40.30
36416;DHT22;22447;44.530;18.620;2023-05-07T15:19:04;27.00;39.00
36416;DHT22;22447;44.530;18.620;2023-05-07T15:21:30;26.80;41.10
36416;DHT22;22447;44.530;18.620;2023-05-07T15:23:59;26.70;42.50
36416;DHT22;22447;44.530;18.620;2023-05-07T15:26:26;26.70;41.20
36416;DHT22;22447;44.530;18.620;2023-05-07T15:28:52;26.70;42.50
36416;DHT22;22447;44.530;18.620;2023-05-07T15:31:17;26.60;45.40